<?xml version="1.0" encoding="UTF-8" standalone="no" ?>
<gpx xmlns="http://www.topografix.com/GPX/1/1" xmlns:xsi="http://www.w3.org/2001/XMLSchema-instance" xsi:schemaLocation="http://www.topografix.com/GPX/1/1 http://www.topografix.com/GPX/1/1/gpx.xsd" version="1.1" creator="VisuGPX - https://www.visugpx.com">
  <metadata>
    <name>sortie a l\'arrache avant la nuit</name>
    <desc><![CDATA[petite sortie improvisé aprés le boulot ]]></desc>
  </metadata>
  <trk>
    <name><![CDATA[Sequence 2]]></name>
    <trkseg>
      <trkpt lat="47.19432" lon="-1.67607">
        <ele>12</ele>
        <time>2014-03-06T18:06:12Z</time>
      </trkpt>
      <trkpt lat="47.1942" lon="-1.67621">
        <ele>10</ele>
        <time>2014-03-06T18:06:16Z</time>
      </trkpt>
      <trkpt lat="47.19411" lon="-1.67635">
        <ele>9</ele>
        <time>2014-03-06T18:06:19Z</time>
      </trkpt>
      <trkpt lat="47.19399" lon="-1.67666">
        <ele>10</ele>
        <time>2014-03-06T18:06:23Z</time>
      </trkpt>
      <trkpt lat="47.19389" lon="-1.67696">
        <ele>11</ele>
        <time>2014-03-06T18:06:26Z</time>
      </trkpt>
      <trkpt lat="47.19382" lon="-1.67771">
        <ele>11</ele>
        <time>2014-03-06T18:06:33Z</time>
      </trkpt>
      <trkpt lat="47.19379" lon="-1.67811">
        <ele>11</ele>
        <time>2014-03-06T18:06:37Z</time>
      </trkpt>
      <trkpt lat="47.19382" lon="-1.67851">
        <ele>13</ele>
        <time>2014-03-06T18:06:41Z</time>
      </trkpt>
      <trkpt lat="47.19389" lon="-1.67884">
        <ele>14</ele>
        <time>2014-03-06T18:06:44Z</time>
      </trkpt>
      <trkpt lat="47.19401" lon="-1.67927">
        <ele>13</ele>
        <time>2014-03-06T18:06:48Z</time>
      </trkpt>
      <trkpt lat="47.19413" lon="-1.67963">
        <ele>14</ele>
        <time>2014-03-06T18:06:52Z</time>
      </trkpt>
      <trkpt lat="47.19422" lon="-1.67999">
        <ele>13</ele>
        <time>2014-03-06T18:06:56Z</time>
      </trkpt>
      <trkpt lat="47.19431" lon="-1.68028">
        <ele>14</ele>
        <time>2014-03-06T18:07:00Z</time>
      </trkpt>
      <trkpt lat="47.19436" lon="-1.68053">
        <ele>15</ele>
        <time>2014-03-06T18:07:04Z</time>
      </trkpt>
      <trkpt lat="47.19444" lon="-1.68088">
        <ele>16</ele>
        <time>2014-03-06T18:07:08Z</time>
      </trkpt>
      <trkpt lat="47.19454" lon="-1.68126">
        <ele>17</ele>
        <time>2014-03-06T18:07:12Z</time>
      </trkpt>
      <trkpt lat="47.19463" lon="-1.68166">
        <ele>16</ele>
        <time>2014-03-06T18:07:16Z</time>
      </trkpt>
      <trkpt lat="47.19476" lon="-1.68206">
        <ele>12</ele>
        <time>2014-03-06T18:07:20Z</time>
      </trkpt>
      <trkpt lat="47.19491" lon="-1.6826">
        <ele>11</ele>
        <time>2014-03-06T18:07:25Z</time>
      </trkpt>
      <trkpt lat="47.19501" lon="-1.6829">
        <ele>11</ele>
        <time>2014-03-06T18:07:28Z</time>
      </trkpt>
      <trkpt lat="47.19511" lon="-1.68318">
        <ele>12</ele>
        <time>2014-03-06T18:07:31Z</time>
      </trkpt>
      <trkpt lat="47.19529" lon="-1.68367">
        <ele>15</ele>
        <time>2014-03-06T18:07:36Z</time>
      </trkpt>
      <trkpt lat="47.1954" lon="-1.68407">
        <ele>15</ele>
        <time>2014-03-06T18:07:40Z</time>
      </trkpt>
      <trkpt lat="47.19549" lon="-1.68428">
        <ele>14</ele>
        <time>2014-03-06T18:07:43Z</time>
      </trkpt>
      <trkpt lat="47.19571" lon="-1.68495">
        <ele>14</ele>
        <time>2014-03-06T18:07:49Z</time>
      </trkpt>
      <trkpt lat="47.19578" lon="-1.68522">
        <ele>14</ele>
        <time>2014-03-06T18:07:53Z</time>
      </trkpt>
      <trkpt lat="47.1959" lon="-1.68563">
        <ele>14</ele>
        <time>2014-03-06T18:07:56Z</time>
      </trkpt>
      <trkpt lat="47.19594" lon="-1.6859">
        <ele>15</ele>
        <time>2014-03-06T18:07:59Z</time>
      </trkpt>
      <trkpt lat="47.19605" lon="-1.6863">
        <ele>16</ele>
        <time>2014-03-06T18:08:03Z</time>
      </trkpt>
      <trkpt lat="47.19617" lon="-1.68658">
        <ele>20</ele>
        <time>2014-03-06T18:08:06Z</time>
      </trkpt>
      <trkpt lat="47.19638" lon="-1.68719">
        <ele>21</ele>
        <time>2014-03-06T18:08:12Z</time>
      </trkpt>
      <trkpt lat="47.19649" lon="-1.68752">
        <ele>20</ele>
        <time>2014-03-06T18:08:15Z</time>
      </trkpt>
      <trkpt lat="47.19667" lon="-1.68822">
        <ele>13</ele>
        <time>2014-03-06T18:08:22Z</time>
      </trkpt>
      <trkpt lat="47.1967" lon="-1.68834">
        <ele>13</ele>
        <time>2014-03-06T18:08:23Z</time>
      </trkpt>
      <trkpt lat="47.19674" lon="-1.68894">
        <ele>14</ele>
        <time>2014-03-06T18:08:29Z</time>
      </trkpt>
      <trkpt lat="47.19675" lon="-1.68928">
        <ele>14</ele>
        <time>2014-03-06T18:08:33Z</time>
      </trkpt>
      <trkpt lat="47.19672" lon="-1.68997">
        <ele>12</ele>
        <time>2014-03-06T18:08:38Z</time>
      </trkpt>
      <trkpt lat="47.19664" lon="-1.69044">
        <ele>17</ele>
        <time>2014-03-06T18:08:43Z</time>
      </trkpt>
      <trkpt lat="47.19656" lon="-1.69074">
        <ele>16</ele>
        <time>2014-03-06T18:08:46Z</time>
      </trkpt>
      <trkpt lat="47.19638" lon="-1.69115">
        <ele>17</ele>
        <time>2014-03-06T18:08:51Z</time>
      </trkpt>
      <trkpt lat="47.1962" lon="-1.69136">
        <ele>17</ele>
        <time>2014-03-06T18:08:53Z</time>
      </trkpt>
      <trkpt lat="47.19605" lon="-1.69161">
        <ele>16</ele>
        <time>2014-03-06T18:08:57Z</time>
      </trkpt>
      <trkpt lat="47.19579" lon="-1.69194">
        <ele>19</ele>
        <time>2014-03-06T18:09:01Z</time>
      </trkpt>
      <trkpt lat="47.19544" lon="-1.6924">
        <ele>16</ele>
        <time>2014-03-06T18:09:06Z</time>
      </trkpt>
      <trkpt lat="47.1953" lon="-1.69259">
        <ele>13</ele>
        <time>2014-03-06T18:09:10Z</time>
      </trkpt>
      <trkpt lat="47.19495" lon="-1.693">
        <ele>12</ele>
        <time>2014-03-06T18:09:15Z</time>
      </trkpt>
      <trkpt lat="47.1949" lon="-1.69307">
        <ele>12</ele>
        <time>2014-03-06T18:09:16Z</time>
      </trkpt>
      <trkpt lat="47.19451" lon="-1.69353">
        <ele>14</ele>
        <time>2014-03-06T18:09:23Z</time>
      </trkpt>
      <trkpt lat="47.19446" lon="-1.6936">
        <ele>15</ele>
        <time>2014-03-06T18:09:24Z</time>
      </trkpt>
      <trkpt lat="47.19423" lon="-1.69388">
        <ele>15</ele>
        <time>2014-03-06T18:09:27Z</time>
      </trkpt>
      <trkpt lat="47.19381" lon="-1.6942">
        <ele>12</ele>
        <time>2014-03-06T18:09:34Z</time>
      </trkpt>
      <trkpt lat="47.1936" lon="-1.69428">
        <ele>13</ele>
        <time>2014-03-06T18:09:37Z</time>
      </trkpt>
      <trkpt lat="47.19326" lon="-1.69438">
        <ele>13</ele>
        <time>2014-03-06T18:09:42Z</time>
      </trkpt>
      <trkpt lat="47.19306" lon="-1.69446">
        <ele>14</ele>
        <time>2014-03-06T18:09:45Z</time>
      </trkpt>
      <trkpt lat="47.19282" lon="-1.69469">
        <ele>15</ele>
        <time>2014-03-06T18:09:49Z</time>
      </trkpt>
      <trkpt lat="47.19259" lon="-1.69494">
        <ele>14</ele>
        <time>2014-03-06T18:09:53Z</time>
      </trkpt>
      <trkpt lat="47.19231" lon="-1.6953">
        <ele>16</ele>
        <time>2014-03-06T18:09:59Z</time>
      </trkpt>
      <trkpt lat="47.19219" lon="-1.69544">
        <ele>17</ele>
        <time>2014-03-06T18:10:02Z</time>
      </trkpt>
      <trkpt lat="47.19207" lon="-1.69565">
        <ele>17</ele>
        <time>2014-03-06T18:10:06Z</time>
      </trkpt>
      <trkpt lat="47.19206" lon="-1.69582">
        <ele>19</ele>
        <time>2014-03-06T18:10:10Z</time>
      </trkpt>
      <trkpt lat="47.19198" lon="-1.69612">
        <ele>20</ele>
        <time>2014-03-06T18:10:14Z</time>
      </trkpt>
      <trkpt lat="47.19183" lon="-1.69598">
        <ele>19</ele>
        <time>2014-03-06T18:10:18Z</time>
      </trkpt>
      <trkpt lat="47.19175" lon="-1.69575">
        <ele>21</ele>
        <time>2014-03-06T18:10:22Z</time>
      </trkpt>
      <trkpt lat="47.19163" lon="-1.69551">
        <ele>20</ele>
        <time>2014-03-06T18:10:26Z</time>
      </trkpt>
      <trkpt lat="47.19152" lon="-1.69531">
        <ele>20</ele>
        <time>2014-03-06T18:10:30Z</time>
      </trkpt>
      <trkpt lat="47.1914" lon="-1.69512">
        <ele>21</ele>
        <time>2014-03-06T18:10:34Z</time>
      </trkpt>
      <trkpt lat="47.19128" lon="-1.69492">
        <ele>22</ele>
        <time>2014-03-06T18:10:38Z</time>
      </trkpt>
      <trkpt lat="47.19114" lon="-1.69473">
        <ele>22</ele>
        <time>2014-03-06T18:10:42Z</time>
      </trkpt>
      <trkpt lat="47.19102" lon="-1.69453">
        <ele>23</ele>
        <time>2014-03-06T18:10:46Z</time>
      </trkpt>
      <trkpt lat="47.19089" lon="-1.69433">
        <ele>26</ele>
        <time>2014-03-06T18:10:50Z</time>
      </trkpt>
      <trkpt lat="47.19077" lon="-1.69416">
        <ele>28</ele>
        <time>2014-03-06T18:10:54Z</time>
      </trkpt>
      <trkpt lat="47.19065" lon="-1.69399">
        <ele>29</ele>
        <time>2014-03-06T18:10:58Z</time>
      </trkpt>
      <trkpt lat="47.19053" lon="-1.69381">
        <ele>30</ele>
        <time>2014-03-06T18:11:02Z</time>
      </trkpt>
      <trkpt lat="47.19044" lon="-1.69365">
        <ele>32</ele>
        <time>2014-03-06T18:11:06Z</time>
      </trkpt>
      <trkpt lat="47.19032" lon="-1.6935">
        <ele>31</ele>
        <time>2014-03-06T18:11:10Z</time>
      </trkpt>
      <trkpt lat="47.19025" lon="-1.69332">
        <ele>33</ele>
        <time>2014-03-06T18:11:14Z</time>
      </trkpt>
      <trkpt lat="47.19016" lon="-1.69316">
        <ele>34</ele>
        <time>2014-03-06T18:11:18Z</time>
      </trkpt>
      <trkpt lat="47.19008" lon="-1.69296">
        <ele>35</ele>
        <time>2014-03-06T18:11:23Z</time>
      </trkpt>
      <trkpt lat="47.19005" lon="-1.69281">
        <ele>35</ele>
        <time>2014-03-06T18:11:25Z</time>
      </trkpt>
      <trkpt lat="47.18989" lon="-1.69242">
        <ele>31</ele>
        <time>2014-03-06T18:11:31Z</time>
      </trkpt>
      <trkpt lat="47.18984" lon="-1.69223">
        <ele>33</ele>
        <time>2014-03-06T18:11:35Z</time>
      </trkpt>
      <trkpt lat="47.18976" lon="-1.69195">
        <ele>33</ele>
        <time>2014-03-06T18:11:38Z</time>
      </trkpt>
      <trkpt lat="47.18964" lon="-1.69164">
        <ele>32</ele>
        <time>2014-03-06T18:11:42Z</time>
      </trkpt>
      <trkpt lat="47.18954" lon="-1.69131">
        <ele>31</ele>
        <time>2014-03-06T18:11:46Z</time>
      </trkpt>
      <trkpt lat="47.1893" lon="-1.69104">
        <ele>32</ele>
        <time>2014-03-06T18:11:51Z</time>
      </trkpt>
      <trkpt lat="47.18912" lon="-1.69073">
        <ele>30</ele>
        <time>2014-03-06T18:11:55Z</time>
      </trkpt>
      <trkpt lat="47.18893" lon="-1.69036">
        <ele>31</ele>
        <time>2014-03-06T18:11:58Z</time>
      </trkpt>
      <trkpt lat="47.18862" lon="-1.6902">
        <ele>30</ele>
        <time>2014-03-06T18:12:04Z</time>
      </trkpt>
      <trkpt lat="47.18803" lon="-1.69045">
        <ele>26</ele>
        <time>2014-03-06T18:12:10Z</time>
      </trkpt>
      <trkpt lat="47.18775" lon="-1.69059">
        <ele>24</ele>
        <time>2014-03-06T18:12:14Z</time>
      </trkpt>
      <trkpt lat="47.18751" lon="-1.69079">
        <ele>24</ele>
        <time>2014-03-06T18:12:18Z</time>
      </trkpt>
      <trkpt lat="47.18739" lon="-1.6909">
        <ele>25</ele>
        <time>2014-03-06T18:12:20Z</time>
      </trkpt>
      <trkpt lat="47.18708" lon="-1.69109">
        <ele>28</ele>
        <time>2014-03-06T18:12:24Z</time>
      </trkpt>
      <trkpt lat="47.18676" lon="-1.69128">
        <ele>27</ele>
        <time>2014-03-06T18:12:30Z</time>
      </trkpt>
      <trkpt lat="47.18648" lon="-1.69151">
        <ele>29</ele>
        <time>2014-03-06T18:12:35Z</time>
      </trkpt>
      <trkpt lat="47.18627" lon="-1.69172">
        <ele>31</ele>
        <time>2014-03-06T18:12:38Z</time>
      </trkpt>
      <trkpt lat="47.18616" lon="-1.6918">
        <ele>31</ele>
        <time>2014-03-06T18:12:41Z</time>
      </trkpt>
      <trkpt lat="47.18579" lon="-1.69206">
        <ele>29</ele>
        <time>2014-03-06T18:12:47Z</time>
      </trkpt>
      <trkpt lat="47.18561" lon="-1.69212">
        <ele>28</ele>
        <time>2014-03-06T18:12:50Z</time>
      </trkpt>
      <trkpt lat="47.1854" lon="-1.69227">
        <ele>27</ele>
        <time>2014-03-06T18:12:55Z</time>
      </trkpt>
      <trkpt lat="47.18518" lon="-1.69237">
        <ele>27</ele>
        <time>2014-03-06T18:12:59Z</time>
      </trkpt>
      <trkpt lat="47.18498" lon="-1.6925">
        <ele>30</ele>
        <time>2014-03-06T18:13:03Z</time>
      </trkpt>
      <trkpt lat="47.18484" lon="-1.69257">
        <ele>33</ele>
        <time>2014-03-06T18:13:05Z</time>
      </trkpt>
      <trkpt lat="47.18463" lon="-1.69272">
        <ele>32</ele>
        <time>2014-03-06T18:13:11Z</time>
      </trkpt>
      <trkpt lat="47.1844" lon="-1.69287">
        <ele>33</ele>
        <time>2014-03-06T18:13:16Z</time>
      </trkpt>
      <trkpt lat="47.18423" lon="-1.69296">
        <ele>35</ele>
        <time>2014-03-06T18:13:19Z</time>
      </trkpt>
      <trkpt lat="47.18411" lon="-1.69306">
        <ele>36</ele>
        <time>2014-03-06T18:13:22Z</time>
      </trkpt>
      <trkpt lat="47.18399" lon="-1.69312">
        <ele>37</ele>
        <time>2014-03-06T18:13:26Z</time>
      </trkpt>
      <trkpt lat="47.18386" lon="-1.69324">
        <ele>37</ele>
        <time>2014-03-06T18:13:28Z</time>
      </trkpt>
      <trkpt lat="47.18357" lon="-1.69343">
        <ele>37</ele>
        <time>2014-03-06T18:13:35Z</time>
      </trkpt>
      <trkpt lat="47.18337" lon="-1.69361">
        <ele>36</ele>
        <time>2014-03-06T18:13:39Z</time>
      </trkpt>
      <trkpt lat="47.18317" lon="-1.69371">
        <ele>36</ele>
        <time>2014-03-06T18:13:43Z</time>
      </trkpt>
      <trkpt lat="47.18297" lon="-1.69382">
        <ele>36</ele>
        <time>2014-03-06T18:13:46Z</time>
      </trkpt>
      <trkpt lat="47.1826" lon="-1.69395">
        <ele>37</ele>
        <time>2014-03-06T18:13:53Z</time>
      </trkpt>
      <trkpt lat="47.1824" lon="-1.69402">
        <ele>38</ele>
        <time>2014-03-06T18:13:55Z</time>
      </trkpt>
      <trkpt lat="47.18216" lon="-1.69409">
        <ele>38</ele>
        <time>2014-03-06T18:13:59Z</time>
      </trkpt>
      <trkpt lat="47.18189" lon="-1.69418">
        <ele>36</ele>
        <time>2014-03-06T18:14:04Z</time>
      </trkpt>
      <trkpt lat="47.18177" lon="-1.69423">
        <ele>35</ele>
        <time>2014-03-06T18:14:05Z</time>
      </trkpt>
      <trkpt lat="47.18135" lon="-1.69437">
        <ele>31</ele>
        <time>2014-03-06T18:14:12Z</time>
      </trkpt>
      <trkpt lat="47.18102" lon="-1.69447">
        <ele>32</ele>
        <time>2014-03-06T18:14:17Z</time>
      </trkpt>
      <trkpt lat="47.18088" lon="-1.69451">
        <ele>31</ele>
        <time>2014-03-06T18:14:18Z</time>
      </trkpt>
      <trkpt lat="47.18066" lon="-1.69461">
        <ele>33</ele>
        <time>2014-03-06T18:14:21Z</time>
      </trkpt>
      <trkpt lat="47.18022" lon="-1.69458">
        <ele>33</ele>
        <time>2014-03-06T18:14:28Z</time>
      </trkpt>
      <trkpt lat="47.1799" lon="-1.69463">
        <ele>31</ele>
        <time>2014-03-06T18:14:32Z</time>
      </trkpt>
      <trkpt lat="47.17963" lon="-1.6947">
        <ele>32</ele>
        <time>2014-03-06T18:14:36Z</time>
      </trkpt>
      <trkpt lat="47.1793" lon="-1.69477">
        <ele>29</ele>
        <time>2014-03-06T18:14:40Z</time>
      </trkpt>
      <trkpt lat="47.17917" lon="-1.69483">
        <ele>29</ele>
        <time>2014-03-06T18:14:43Z</time>
      </trkpt>
      <trkpt lat="47.17895" lon="-1.69491">
        <ele>30</ele>
        <time>2014-03-06T18:14:45Z</time>
      </trkpt>
      <trkpt lat="47.17842" lon="-1.695">
        <ele>34</ele>
        <time>2014-03-06T18:14:53Z</time>
      </trkpt>
      <trkpt lat="47.17821" lon="-1.69506">
        <ele>34</ele>
        <time>2014-03-06T18:14:55Z</time>
      </trkpt>
      <trkpt lat="47.17785" lon="-1.6952">
        <ele>35</ele>
        <time>2014-03-06T18:15:00Z</time>
      </trkpt>
      <trkpt lat="47.17773" lon="-1.69529">
        <ele>36</ele>
        <time>2014-03-06T18:15:03Z</time>
      </trkpt>
      <trkpt lat="47.17732" lon="-1.69543">
        <ele>36</ele>
        <time>2014-03-06T18:15:08Z</time>
      </trkpt>
      <trkpt lat="47.17705" lon="-1.69555">
        <ele>35</ele>
        <time>2014-03-06T18:15:12Z</time>
      </trkpt>
      <trkpt lat="47.17685" lon="-1.69562">
        <ele>36</ele>
        <time>2014-03-06T18:15:16Z</time>
      </trkpt>
      <trkpt lat="47.17672" lon="-1.69566">
        <ele>38</ele>
        <time>2014-03-06T18:15:17Z</time>
      </trkpt>
      <trkpt lat="47.17623" lon="-1.69574">
        <ele>40</ele>
        <time>2014-03-06T18:15:24Z</time>
      </trkpt>
      <trkpt lat="47.17599" lon="-1.69583">
        <ele>38</ele>
        <time>2014-03-06T18:15:28Z</time>
      </trkpt>
      <trkpt lat="47.17589" lon="-1.69596">
        <ele>40</ele>
        <time>2014-03-06T18:15:35Z</time>
      </trkpt>
      <trkpt lat="47.17579" lon="-1.69592">
        <ele>40</ele>
        <time>2014-03-06T18:15:38Z</time>
      </trkpt>
      <trkpt lat="47.17576" lon="-1.69553">
        <ele>40</ele>
        <time>2014-03-06T18:15:43Z</time>
      </trkpt>
      <trkpt lat="47.17574" lon="-1.69512">
        <ele>40</ele>
        <time>2014-03-06T18:15:47Z</time>
      </trkpt>
      <trkpt lat="47.17571" lon="-1.69471">
        <ele>41</ele>
        <time>2014-03-06T18:15:52Z</time>
      </trkpt>
      <trkpt lat="47.1757" lon="-1.69427">
        <ele>41</ele>
        <time>2014-03-06T18:15:55Z</time>
      </trkpt>
      <trkpt lat="47.1757" lon="-1.69379">
        <ele>39</ele>
        <time>2014-03-06T18:15:59Z</time>
      </trkpt>
      <trkpt lat="47.17569" lon="-1.6933">
        <ele>39</ele>
        <time>2014-03-06T18:16:04Z</time>
      </trkpt>
      <trkpt lat="47.17568" lon="-1.69308">
        <ele>39</ele>
        <time>2014-03-06T18:16:06Z</time>
      </trkpt>
      <trkpt lat="47.17565" lon="-1.69241">
        <ele>36</ele>
        <time>2014-03-06T18:16:11Z</time>
      </trkpt>
      <trkpt lat="47.17562" lon="-1.69184">
        <ele>37</ele>
        <time>2014-03-06T18:16:16Z</time>
      </trkpt>
      <trkpt lat="47.17562" lon="-1.69152">
        <ele>37</ele>
        <time>2014-03-06T18:16:19Z</time>
      </trkpt>
      <trkpt lat="47.17564" lon="-1.69096">
        <ele>41</ele>
        <time>2014-03-06T18:16:25Z</time>
      </trkpt>
      <trkpt lat="47.17566" lon="-1.69061">
        <ele>41</ele>
        <time>2014-03-06T18:16:27Z</time>
      </trkpt>
      <trkpt lat="47.17567" lon="-1.69013">
        <ele>41</ele>
        <time>2014-03-06T18:16:31Z</time>
      </trkpt>
      <trkpt lat="47.17566" lon="-1.68968">
        <ele>40</ele>
        <time>2014-03-06T18:16:36Z</time>
      </trkpt>
      <trkpt lat="47.17564" lon="-1.68926">
        <ele>41</ele>
        <time>2014-03-06T18:16:40Z</time>
      </trkpt>
      <trkpt lat="47.1756" lon="-1.68883">
        <ele>41</ele>
        <time>2014-03-06T18:16:43Z</time>
      </trkpt>
      <trkpt lat="47.17557" lon="-1.68839">
        <ele>42</ele>
        <time>2014-03-06T18:16:47Z</time>
      </trkpt>
      <trkpt lat="47.17558" lon="-1.68794">
        <ele>40</ele>
        <time>2014-03-06T18:16:51Z</time>
      </trkpt>
      <trkpt lat="47.17562" lon="-1.68748">
        <ele>40</ele>
        <time>2014-03-06T18:16:55Z</time>
      </trkpt>
      <trkpt lat="47.17566" lon="-1.68706">
        <ele>41</ele>
        <time>2014-03-06T18:17:00Z</time>
      </trkpt>
      <trkpt lat="47.17571" lon="-1.68662">
        <ele>39</ele>
        <time>2014-03-06T18:17:04Z</time>
      </trkpt>
      <trkpt lat="47.17578" lon="-1.68621">
        <ele>38</ele>
        <time>2014-03-06T18:17:08Z</time>
      </trkpt>
      <trkpt lat="47.17586" lon="-1.68588">
        <ele>40</ele>
        <time>2014-03-06T18:17:10Z</time>
      </trkpt>
      <trkpt lat="47.17603" lon="-1.68522">
        <ele>39</ele>
        <time>2014-03-06T18:17:17Z</time>
      </trkpt>
      <trkpt lat="47.1761" lon="-1.68488">
        <ele>39</ele>
        <time>2014-03-06T18:17:19Z</time>
      </trkpt>
      <trkpt lat="47.17615" lon="-1.68471">
        <ele>38</ele>
        <time>2014-03-06T18:17:22Z</time>
      </trkpt>
      <trkpt lat="47.17634" lon="-1.68403">
        <ele>38</ele>
        <time>2014-03-06T18:17:28Z</time>
      </trkpt>
      <trkpt lat="47.17638" lon="-1.68363">
        <ele>38</ele>
        <time>2014-03-06T18:17:32Z</time>
      </trkpt>
      <trkpt lat="47.17636" lon="-1.68318">
        <ele>39</ele>
        <time>2014-03-06T18:17:37Z</time>
      </trkpt>
      <trkpt lat="47.17623" lon="-1.68282">
        <ele>38</ele>
        <time>2014-03-06T18:17:41Z</time>
      </trkpt>
      <trkpt lat="47.17609" lon="-1.68248">
        <ele>41</ele>
        <time>2014-03-06T18:17:44Z</time>
      </trkpt>
      <trkpt lat="47.17589" lon="-1.68224">
        <ele>40</ele>
        <time>2014-03-06T18:17:49Z</time>
      </trkpt>
      <trkpt lat="47.17565" lon="-1.68213">
        <ele>40</ele>
        <time>2014-03-06T18:17:53Z</time>
      </trkpt>
      <trkpt lat="47.1754" lon="-1.68216">
        <ele>41</ele>
        <time>2014-03-06T18:17:56Z</time>
      </trkpt>
      <trkpt lat="47.17525" lon="-1.6819">
        <ele>39</ele>
        <time>2014-03-06T18:18:00Z</time>
      </trkpt>
      <trkpt lat="47.17546" lon="-1.68158">
        <ele>41</ele>
        <time>2014-03-06T18:18:05Z</time>
      </trkpt>
      <trkpt lat="47.17563" lon="-1.68136">
        <ele>42</ele>
        <time>2014-03-06T18:18:08Z</time>
      </trkpt>
      <trkpt lat="47.17571" lon="-1.68118">
        <ele>42</ele>
        <time>2014-03-06T18:18:10Z</time>
      </trkpt>
      <trkpt lat="47.17594" lon="-1.68063">
        <ele>41</ele>
        <time>2014-03-06T18:18:17Z</time>
      </trkpt>
      <trkpt lat="47.17609" lon="-1.68029">
        <ele>40</ele>
        <time>2014-03-06T18:18:21Z</time>
      </trkpt>
      <trkpt lat="47.17622" lon="-1.67994">
        <ele>40</ele>
        <time>2014-03-06T18:18:24Z</time>
      </trkpt>
      <trkpt lat="47.17625" lon="-1.67952">
        <ele>39</ele>
        <time>2014-03-06T18:18:28Z</time>
      </trkpt>
      <trkpt lat="47.17636" lon="-1.67915">
        <ele>39</ele>
        <time>2014-03-06T18:18:33Z</time>
      </trkpt>
      <trkpt lat="47.17639" lon="-1.67867">
        <ele>39</ele>
        <time>2014-03-06T18:18:38Z</time>
      </trkpt>
      <trkpt lat="47.17638" lon="-1.67846">
        <ele>38</ele>
        <time>2014-03-06T18:18:41Z</time>
      </trkpt>
      <trkpt lat="47.17653" lon="-1.67833">
        <ele>41</ele>
        <time>2014-03-06T18:18:45Z</time>
      </trkpt>
      <trkpt lat="47.17672" lon="-1.67826">
        <ele>41</ele>
        <time>2014-03-06T18:18:48Z</time>
      </trkpt>
      <trkpt lat="47.17682" lon="-1.6782">
        <ele>41</ele>
        <time>2014-03-06T18:18:51Z</time>
      </trkpt>
      <trkpt lat="47.17708" lon="-1.67821">
        <ele>42</ele>
        <time>2014-03-06T18:18:56Z</time>
      </trkpt>
      <trkpt lat="47.17714" lon="-1.67829">
        <ele>44</ele>
        <time>2014-03-06T18:18:59Z</time>
      </trkpt>
      <trkpt lat="47.17698" lon="-1.67848">
        <ele>43</ele>
        <time>2014-03-06T18:19:04Z</time>
      </trkpt>
    </trkseg>
  </trk>
</gpx>